WetterOnline ( http://www.wetteronline.de )

Wetter aktuell Lübeck

Aktuelles Wetter: Lübeck/Blankensee (15m)

6-stündlich | Neueste Meldungen
Ortszeit Temperatur Wetter
Mo, 10.12. 13:00 5.3° C bewölkt
Mo, 10.12. 7:00 4.0° C bewölkt
Mo, 10.12. 1:00 5.1° C wolkig
So, 09.12. 19:00 6.8° C bewölkt
So, 09.12. 13:00 7.8° C leicht bewölkt
So, 09.12. 7:00 5.7° C bedeckt
So, 09.12. 1:00 6.4° C Regen
Sa, 08.12. 19:00 8.6° C bedeckt
Ortszeit Temperatur Wetter
Mo, 10.12. 18:00 4.6° C wolkig
Mo, 10.12. 17:50 4.6° C wolkig
Mo, 10.12. 17:40 4.5° C leicht bewölkt
Mo, 10.12. 17:30 4.5° C bedeckt
Mo, 10.12. 17:20 4.5° C bedeckt
Mo, 10.12. 17:10 4.6° C wolkig
Mo, 10.12. 17:00 4.7° C wolkig
Mo, 10.12. 16:30 4.4° C wolkig
Mo, 10.12. 16:00 4.1° C bewölkt
Mo, 10.12. 15:30 4.0° C bewölkt
Mo, 10.12. 15:00 4.7° C bewölkt
Ortszeit Relative Feuchte Sichtweite
Mo, 10.12. 13:00 72% 45 km
Mo, 10.12. 7:00 78% 30 km
Mo, 10.12. 1:00 74% 45 km
So, 09.12. 19:00 78% 27 km
So, 09.12. 13:00 83% 55 km
So, 09.12. 7:00 90% 65 km
So, 09.12. 1:00 97% 5.0 km
Sa, 08.12. 19:00 78% 40 km
Ortszeit Relative Feuchte Sichtweite
Mo, 10.12. 18:00 80% 30 km
Mo, 10.12. 17:50 80% -
Mo, 10.12. 17:40 79% -
Mo, 10.12. 17:30 79% 40 km
Mo, 10.12. 17:20 79% -
Mo, 10.12. 17:10 79% -
Mo, 10.12. 17:00 79% 35 km
Mo, 10.12. 16:30 83% 35 km
Mo, 10.12. 16:00 85% 45 km
Mo, 10.12. 15:30 86% 45 km
Mo, 10.12. 15:00 79% 55 km
Ortszeit Niederschlagsmenge Niederschlagsart
Mo, 10.12. 13:00 0.2 l/m2 in 6 Std. Regen
Mo, 10.12. 7:00 0.1 l/m2 in 12 Std. -
Mo, 10.12. 1:00 0.1 l/m2 in 6 Std. Regen
So, 09.12. 19:00 1 l/m2 in 12 Std. Regen
So, 09.12. 13:00 0.7 l/m2 in 6 Std. Regen
So, 09.12. 7:00 12 l/m2 in 12 Std. Regen
So, 09.12. 1:00 7 l/m2 in 6 Std. Regen
Sa, 08.12. 19:00 2 l/m2 in 12 Std. Regen
Ortszeit Niederschlagsmenge Niederschlagsart
Mo, 10.12. 18:00 0.0 l/m2 in 1 Std. -
Mo, 10.12. 17:50 keine Meldung -
Mo, 10.12. 17:40 keine Meldung -
Mo, 10.12. 17:30 0.0 l/m2 in 1 Std. -
Mo, 10.12. 17:20 keine Meldung -
Mo, 10.12. 17:10 keine Meldung -
Mo, 10.12. 17:00 0.1 l/m2 in 1 Std. -
Mo, 10.12. 16:30 0.0 l/m2 in 1 Std. -
Mo, 10.12. 16:00 0.1 l/m2 in 1 Std. Regen
Mo, 10.12. 15:30 0.1 l/m2 in 1 Std. Schneeregen
Mo, 10.12. 15:00 0.0 l/m2 in 1 Std. -
Ortszeit Stärke Spitze Richtung
km/h Bft. km/h Grad Sektor
Mo, 10.12. 13:00 28 4 50 270° W
Mo, 10.12. 7:00 15 3 39 260° W
Mo, 10.12. 1:00 20 4 52 280° W
So, 09.12. 19:00 28 4 50 280° W
So, 09.12. 13:00 18 3 43 250° W
So, 09.12. 7:00 17 3 28 250° W
So, 09.12. 1:00 4 1 50 160° S
Sa, 08.12. 19:00 25 4 50 240° SW
Ortszeit Stärke Spitze Richtung
km/h Bft. km/h Grad Sektor
Mo, 10.12. 18:00 17 3 33 270° W
Mo, 10.12. 17:50 17 3 - 270° W
Mo, 10.12. 17:40 20 4 - 270° W
Mo, 10.12. 17:30 18 3 32 260° W
Mo, 10.12. 17:20 18 3 - 260° W
Mo, 10.12. 17:10 18 3 - 270° W
Mo, 10.12. 17:00 22 4 32 270° W
Mo, 10.12. 16:30 18 3 32 260° W
Mo, 10.12. 16:00 14 3 32 260° W
Mo, 10.12. 15:30 18 3 32 260° W
Mo, 10.12. 15:00 18 3 40 260° W
Ortszeit Untergrenze Bedeckung Gattung
total tief tief mittel hoch
Mo, 10.12. 13:00 810 m 8/8 4/8 - - -
Mo, 10.12. 7:00 1050 m 7/8 7/8 - - -
Mo, 10.12. 1:00 2100 m 7/8 1/8 - - -
So, 09.12. 19:00 810 m 7/8 7/8 - - -
So, 09.12. 13:00 4800 m 3/8 3/8 - - -
So, 09.12. 7:00 750 m 8/8 8/8 - - -
So, 09.12. 1:00 180 m 8/8 8/8 - - -
Sa, 08.12. 19:00 660 m 8/8 8/8 - - -
Ortszeit Bedeckungsgrad in Achtel und Wolkenuntergrenze
Mo, 10.12. 18:00 1(900m) 5(1440m) 6(1500m)
Mo, 10.12. 17:50 1(900m) 5(1440m) 6(1500m)
Mo, 10.12. 17:40 1(870m) 1(1410m) 3(1500m)
Mo, 10.12. 17:30 1(1050m) 2(1470m) 9(1500m)
Mo, 10.12. 17:20 9 9 9
Mo, 10.12. 17:10 2(1050m) 4(1800m) 5(3900m)
Mo, 10.12. 17:00 1(810m) 3(1800m) 6(4200m)
Mo, 10.12. 16:30 2(1080m) 5(1500m) 7(4200m)
Mo, 10.12. 16:00 1(660m) 7(1500m) 7(1500m)
Mo, 10.12. 15:30 4(600m) 7(1500m) 8(5100m)
Mo, 10.12. 15:00 6(690m) 7(990m) 7(1500m)
Ortszeit Luftdruck NN (hPa) Tendenz (hPa in 3 Std.)
Mo, 10.12. 13:00 1009 0,0
Mo, 10.12. 7:00 1008 + 1,8
Mo, 10.12. 1:00 1004 + 3,0
So, 09.12. 19:00 996 + 3,7
So, 09.12. 13:00 990 + 1,4
So, 09.12. 7:00 986 + 1,9
So, 09.12. 1:00 986 - 4,3
Sa, 08.12. 19:00 992 - 0,4
Ortszeit Luftdruck NN (hPa) Tendenz (hPa in 3 Std.)
Mo, 10.12. 18:00 1010 + 0,1
Mo, 10.12. 17:50 1010 keine Meldung
Mo, 10.12. 17:40 1009 keine Meldung
Mo, 10.12. 17:30 1009 + 0,1
Mo, 10.12. 17:20 1009 keine Meldung
Mo, 10.12. 17:10 1010 keine Meldung
Mo, 10.12. 17:00 1009 + 0,2
Mo, 10.12. 16:30 1009 + 0,2
Mo, 10.12. 16:00 1010 + 0,1
Mo, 10.12. 15:30 1010 - 0,2
Mo, 10.12. 15:00 1009 - 0,4
Ortszeit Schneehöhe (cm)
Mo, 10.12. 13:00 0
Mo, 10.12. 7:00 0
Mo, 10.12. 1:00 0
So, 09.12. 19:00 0
So, 09.12. 13:00 0
So, 09.12. 7:00 0
So, 09.12. 1:00 0
Sa, 08.12. 19:00 0
Ortszeit Schneehöhe (cm)
Mo, 10.12. 18:00 0
Mo, 10.12. 17:50 0
Mo, 10.12. 17:40 0
Mo, 10.12. 17:30 0
Mo, 10.12. 17:20 0
Mo, 10.12. 17:10 0
Mo, 10.12. 17:00 0
Mo, 10.12. 16:30 0
Mo, 10.12. 16:00 0
Mo, 10.12. 15:30 0
Mo, 10.12. 15:00 0
Link zu dieser Seite / Seite empfehlen

Das Wetter in ...